createdAt,value
2022-09-06T00:02:12.309Z,50.21
2022-09-06T00:04:39.362Z,50.45
2022-09-06T00:07:06.472Z,50.18
2022-09-06T00:09:33.567Z,49.99
2022-09-06T00:12:00.715Z,50.41
2022-09-06T00:14:27.782Z,50.43
2022-09-06T00:16:54.865Z,50.19
2022-09-06T00:19:21.950Z,50.04
2022-09-06T00:21:49.007Z,50.06
2022-09-06T00:24:16.368Z,50.50
2022-09-06T00:26:43.461Z,50.33
2022-09-06T00:29:10.572Z,50.28
2022-09-06T00:31:37.697Z,50.10
2022-09-06T00:34:04.810Z,50.64
2022-09-06T00:36:31.935Z,50.38
2022-09-06T00:38:59.065Z,50.11
2022-09-06T00:41:26.196Z,50.19
2022-09-06T00:43:53.299Z,50.21
2022-09-06T00:46:20.444Z,50.29
2022-09-06T00:48:47.586Z,50.54
2022-09-06T00:51:14.648Z,50.16
2022-09-06T00:53:41.745Z,50.19
2022-09-06T00:56:08.826Z,50.40
2022-09-06T00:58:35.938Z,50.44
2022-09-06T01:01:03.055Z,50.41
2022-09-06T01:03:30.094Z,50.31
2022-09-06T01:05:57.213Z,50.26
2022-09-06T01:08:24.297Z,50.59
2022-09-06T01:10:51.407Z,50.62
2022-09-06T01:13:18.645Z,50.56
2022-09-06T01:15:45.785Z,50.22
2022-09-06T01:18:12.890Z,50.72
2022-09-06T01:20:41.844Z,50.44
2022-09-06T01:23:08.915Z,50.27
2022-09-06T01:25:36.039Z,50.32
2022-09-06T01:28:03.283Z,50.47
2022-09-06T01:30:30.321Z,50.57
2022-09-06T01:35:24.233Z,50.60
2022-09-06T01:37:51.320Z,50.51
2022-09-06T01:40:18.445Z,50.61
2022-09-06T01:42:45.539Z,50.87
2022-09-06T01:45:12.575Z,50.52
2022-09-06T01:47:41.251Z,50.63
2022-09-06T01:50:08.337Z,50.71
2022-09-06T01:52:35.436Z,50.85
2022-09-06T01:55:02.486Z,50.69
2022-09-06T01:57:29.587Z,50.40
2022-09-06T01:59:56.773Z,50.74
2022-09-06T02:02:23.909Z,50.66
2022-09-06T02:04:51.069Z,50.62
2022-09-06T02:07:18.182Z,50.44
2022-09-06T02:09:45.257Z,50.80
2022-09-06T02:12:15.319Z,50.50
2022-09-06T02:14:42.398Z,50.73
2022-09-06T02:17:09.681Z,50.66
2022-09-06T02:19:36.964Z,50.84
2022-09-06T02:22:04.059Z,50.74
2022-09-06T02:24:31.142Z,50.54
2022-09-06T02:26:58.256Z,50.89
2022-09-06T02:29:25.576Z,50.57
2022-09-06T02:31:52.635Z,50.53
2022-09-06T02:34:19.720Z,50.97
2022-09-06T02:36:46.787Z,50.99
2022-09-06T02:39:13.879Z,50.63
2022-09-06T02:41:41.086Z,50.98
2022-09-06T02:44:08.480Z,50.42
2022-09-06T02:46:35.531Z,50.43
2022-09-06T02:49:03.909Z,50.86
2022-09-06T02:51:31.121Z,50.70
2022-09-06T02:53:58.192Z,50.70
2022-09-06T02:56:25.270Z,50.73
2022-09-06T02:58:52.350Z,50.90
2022-09-06T03:01:19.450Z,50.55
2022-09-06T03:03:46.636Z,50.74
2022-09-06T03:06:13.720Z,50.60
2022-09-06T03:08:40.798Z,50.65
2022-09-06T03:11:07.886Z,50.87
2022-09-06T03:13:34.959Z,50.90
2022-09-06T03:16:02.085Z,50.83
2022-09-06T03:18:29.289Z,50.78
2022-09-06T03:20:56.474Z,51.05
2022-09-06T03:23:23.996Z,51.05
2022-09-06T03:25:51.067Z,51.08
2022-09-06T03:28:18.448Z,50.70
2022-09-06T03:30:45.562Z,50.81
2022-09-06T03:33:12.932Z,50.66
2022-09-06T03:35:39.982Z,50.58
2022-09-06T03:38:07.074Z,51.00
2022-09-06T03:40:34.152Z,50.84
2022-09-06T03:43:01.204Z,50.83
2022-09-06T03:45:28.316Z,50.91
2022-09-06T03:47:55.430Z,50.92
2022-09-06T03:50:22.478Z,50.76
2022-09-06T03:52:49.599Z,50.93
2022-09-06T03:55:16.749Z,50.77
2022-09-06T03:57:43.815Z,50.76
2022-09-06T04:00:10.866Z,50.82
2022-09-06T04:02:37.956Z,51.23
2022-09-06T04:05:05.110Z,50.86
2022-09-06T04:07:32.173Z,51.18
2022-09-06T04:09:59.241Z,50.78
2022-09-06T04:12:26.368Z,51.06
2022-09-06T04:14:53.415Z,51.01
2022-09-06T04:17:20.512Z,50.98
2022-09-06T04:19:47.613Z,51.31
2022-09-06T04:22:14.683Z,51.24
2022-09-06T04:24:41.759Z,51.08
2022-09-06T04:27:08.915Z,51.22
2022-09-06T04:29:36.004Z,51.05
2022-09-06T04:32:03.100Z,51.14
2022-09-06T04:34:30.247Z,51.17
2022-09-06T04:36:57.610Z,50.98
2022-09-06T04:39:24.874Z,50.94
2022-09-06T04:41:52.011Z,51.32
2022-09-06T04:44:19.061Z,51.33
2022-09-06T04:46:46.121Z,51.24
2022-09-06T04:49:13.207Z,50.97
2022-09-06T04:51:40.400Z,51.47
2022-09-06T04:54:07.522Z,51.48
2022-09-06T04:56:34.703Z,51.23
2022-09-06T04:59:01.881Z,51.32
2022-09-06T05:01:38.228Z,51.27
2022-09-06T05:04:05.288Z,51.11
2022-09-06T05:06:32.354Z,50.96
2022-09-06T05:08:59.453Z,51.04
2022-09-06T05:11:26.531Z,51.42
2022-09-06T05:13:53.684Z,51.35
2022-09-06T05:16:20.781Z,51.18
2022-09-06T05:18:47.888Z,51.45
2022-09-06T05:21:15.875Z,51.03
2022-09-06T05:23:42.917Z,51.12
2022-09-06T05:26:09.946Z,51.46
2022-09-06T05:28:37.049Z,51.32
2022-09-06T05:31:04.118Z,51.33
2022-09-06T05:33:31.166Z,51.21
2022-09-06T05:35:58.223Z,51.54
2022-09-06T05:38:29.537Z,51.46
2022-09-06T05:40:56.800Z,51.67
2022-09-06T05:43:23.908Z,51.42
2022-09-06T05:45:51.025Z,51.76
2022-09-06T05:48:19.199Z,51.42
2022-09-06T05:50:46.306Z,51.47
2022-09-06T05:53:13.352Z,51.51
2022-09-06T05:55:43.045Z,51.76
2022-09-06T05:58:10.486Z,51.44
2022-09-06T06:00:37.637Z,51.88
2022-09-06T06:03:04.671Z,51.99
2022-09-06T06:05:31.709Z,51.79
2022-09-06T06:07:59.659Z,51.93
2022-09-06T06:10:26.707Z,51.69
2022-09-06T06:12:53.761Z,51.92
2022-09-06T06:15:20.818Z,52.02
2022-09-06T06:17:47.872Z,51.94
2022-09-06T06:20:14.958Z,51.91
2022-09-06T06:22:41.989Z,51.80
2022-09-06T06:25:09.051Z,51.72
2022-09-06T06:27:37.176Z,51.57
2022-09-06T06:30:04.930Z,51.98
2022-09-06T06:32:32.175Z,51.76
2022-09-06T06:34:59.210Z,51.73
2022-09-06T06:37:26.255Z,51.95
2022-09-06T06:39:53.432Z,51.88
2022-09-06T06:42:20.598Z,51.72
2022-09-06T06:44:47.640Z,52.04
2022-09-06T06:47:14.715Z,51.83
2022-09-06T06:49:41.759Z,51.94
2022-09-06T06:52:08.795Z,51.90
2022-09-06T06:54:37.434Z,51.86
2022-09-06T06:57:04.582Z,51.82
2022-09-06T06:59:31.631Z,52.12
2022-09-06T07:01:58.818Z,52.14
2022-09-06T07:04:25.955Z,52.37
2022-09-06T07:12:27.314Z,52.26
2022-09-06T07:14:54.585Z,52.13
2022-09-06T07:17:21.627Z,52.16
2022-09-06T07:22:35.703Z,52.71
2022-09-06T07:25:02.758Z,52.55
2022-09-06T07:30:12.153Z,52.44
2022-09-06T07:32:39.199Z,52.65
2022-09-06T07:35:06.250Z,52.72
2022-09-06T07:37:33.312Z,52.47
2022-09-06T07:40:00.722Z,52.95
2022-09-06T07:42:27.858Z,52.87
2022-09-06T07:44:57.762Z,52.63
2022-09-06T07:55:33.058Z,52.85
2022-09-06T07:58:00.151Z,52.74
2022-09-06T08:00:27.319Z,53.08
2022-09-06T08:02:54.442Z,52.90
2022-09-06T08:10:55.572Z,53.04
2022-09-06T08:13:22.636Z,53.08
2022-09-06T08:15:49.689Z,53.12
2022-09-06T08:18:16.747Z,53.01
2022-09-06T08:20:43.802Z,52.98
2022-09-06T08:23:10.844Z,53.10
2022-09-06T08:25:37.881Z,53.31
2022-09-06T08:28:04.915Z,53.47
2022-09-06T08:30:32.081Z,53.11
2022-09-06T08:33:01.639Z,52.87
2022-09-06T08:35:28.679Z,53.20
2022-09-06T08:37:55.739Z,53.41
2022-09-06T08:40:23.999Z,53.00
2022-09-06T08:42:51.029Z,53.06
2022-09-06T08:45:19.447Z,52.77
2022-09-06T08:47:46.554Z,53.97
2022-09-06T08:50:13.603Z,53.16
2022-09-06T08:52:49.486Z,52.90
2022-09-06T08:55:27.153Z,52.98
2022-09-06T08:57:54.229Z,52.74
2022-09-06T09:00:21.314Z,53.10
2022-09-06T09:02:48.463Z,52.75
2022-09-06T09:05:15.526Z,52.83
2022-09-06T09:07:42.582Z,53.15
2022-09-06T09:10:09.651Z,52.91
2022-09-06T09:12:36.729Z,52.90
2022-09-06T09:15:03.836Z,52.95
2022-09-06T09:17:30.960Z,53.03
2022-09-06T09:19:58.023Z,53.06
2022-09-06T09:22:25.227Z,52.69
2022-09-06T09:24:52.836Z,53.01
2022-09-06T09:27:19.907Z,53.22
2022-09-06T09:32:34.013Z,52.93
2022-09-06T09:35:01.071Z,52.84
2022-09-06T09:40:15.254Z,52.79
2022-09-06T09:42:42.307Z,52.84
2022-09-06T09:45:09.364Z,52.91
2022-09-06T09:47:36.425Z,53.25
2022-09-06T09:50:03.458Z,52.96
2022-09-06T09:52:31.007Z,52.90
2022-09-06T09:54:58.193Z,52.68
2022-09-06T09:57:25.319Z,52.59
2022-09-06T09:59:52.407Z,52.88
2022-09-06T10:02:19.459Z,52.61
2022-09-06T10:04:46.810Z,53.00
2022-09-06T10:07:13.920Z,53.07
2022-09-06T10:09:40.988Z,52.98
2022-09-06T10:12:08.044Z,53.06
2022-09-06T10:14:35.088Z,53.03
2022-09-06T10:17:02.196Z,53.06
2022-09-06T10:19:29.256Z,53.13
2022-09-06T10:21:56.335Z,52.90
2022-09-06T10:27:10.362Z,52.76
2022-09-06T10:29:37.441Z,53.21
2022-09-06T10:32:04.508Z,53.21
2022-09-06T10:34:31.576Z,53.09
2022-09-06T10:36:58.724Z,52.72
2022-09-06T10:39:26.105Z,53.00
2022-09-06T10:41:53.192Z,52.82
2022-09-06T10:44:20.240Z,52.91
2022-09-06T10:46:47.405Z,52.81
2022-09-06T10:49:14.774Z,52.52
2022-09-06T10:51:41.811Z,52.66
2022-09-06T10:54:08.886Z,52.46
2022-09-06T10:56:36.043Z,52.67
2022-09-06T11:01:50.269Z,52.91
2022-09-06T11:04:20.189Z,52.55
2022-09-06T11:06:47.240Z,52.16
2022-09-06T11:09:14.293Z,52.50
2022-09-06T11:11:42.768Z,52.52
2022-09-06T11:14:09.822Z,52.63
2022-09-06T11:16:39.967Z,52.27
2022-09-06T11:19:07.022Z,52.60
2022-09-06T11:21:34.129Z,52.49
2022-09-06T11:24:01.183Z,52.52
2022-09-06T11:26:28.331Z,52.65
2022-09-06T11:28:55.595Z,52.41
2022-09-06T11:34:10.259Z,52.27
2022-09-06T11:36:37.855Z,52.10
2022-09-06T11:39:04.901Z,52.12
2022-09-06T11:41:31.952Z,52.33
2022-09-06T11:43:59.026Z,52.23
2022-09-06T11:46:26.131Z,52.35
2022-09-06T11:48:53.230Z,52.04
2022-09-06T11:51:20.281Z,52.51
2022-09-06T11:53:47.323Z,52.14
2022-09-06T11:56:14.371Z,51.80
2022-09-06T11:58:41.402Z,52.32
2022-09-06T12:01:08.456Z,52.19
2022-09-06T12:06:23.108Z,52.21
2022-09-06T12:08:53.286Z,52.05
2022-09-06T12:11:20.342Z,52.00
2022-09-06T12:13:47.526Z,51.70
2022-09-06T12:16:14.639Z,51.81
2022-09-06T12:18:41.747Z,52.21
2022-09-06T12:21:08.860Z,51.69
2022-09-06T12:23:35.920Z,52.08
2022-09-06T12:26:02.980Z,52.06
2022-09-06T12:28:30.086Z,52.11
2022-09-06T12:30:57.302Z,52.16
2022-09-06T12:33:24.399Z,51.83
2022-09-06T12:35:59.311Z,51.78
2022-09-06T12:38:27.000Z,51.93
2022-09-06T12:40:58.519Z,51.35
2022-09-06T12:43:25.726Z,51.66
2022-09-06T12:45:52.817Z,51.43
2022-09-06T12:48:19.939Z,51.53
2022-09-06T12:50:46.983Z,51.29
2022-09-06T12:53:15.890Z,51.68
2022-09-06T12:55:43.013Z,51.53
2022-09-06T12:58:10.047Z,51.63
2022-09-06T13:00:37.088Z,51.39
2022-09-06T13:03:04.295Z,51.25
2022-09-06T13:05:31.412Z,51.27
2022-09-06T13:07:58.486Z,51.52
2022-09-06T13:10:25.639Z,50.98
2022-09-06T13:12:53.240Z,51.34
2022-09-06T13:15:20.292Z,51.33
2022-09-06T13:17:47.394Z,51.49
2022-09-06T13:20:14.488Z,51.39
2022-09-06T13:22:41.671Z,51.42
2022-09-06T13:25:08.723Z,51.41
2022-09-06T13:27:36.564Z,51.02
2022-09-06T13:30:03.629Z,51.09
2022-09-06T13:32:30.743Z,51.06
2022-09-06T13:34:57.902Z,50.89
2022-09-06T13:37:25.472Z,51.27
2022-09-06T13:39:52.947Z,51.18
2022-09-06T13:42:20.501Z,51.08
2022-09-06T13:44:47.539Z,51.25
2022-09-06T13:47:14.636Z,51.13
2022-09-06T13:49:41.687Z,50.71
2022-09-06T13:52:08.726Z,51.01
2022-09-06T13:54:35.835Z,50.74
2022-09-06T13:57:02.939Z,50.59
2022-09-06T13:59:30.527Z,50.53
2022-09-06T14:01:57.616Z,50.35
2022-09-06T14:04:25.695Z,50.85
2022-09-06T14:06:52.925Z,50.34
2022-09-06T14:09:19.985Z,50.55
2022-09-06T14:11:48.362Z,50.68
2022-09-06T14:14:15.615Z,50.66
2022-09-06T14:16:42.666Z,50.37
2022-09-06T14:19:09.856Z,50.36
2022-09-06T14:21:37.051Z,50.58
2022-09-06T14:24:04.802Z,50.37
2022-09-06T14:26:31.954Z,50.50
2022-09-06T14:28:59.023Z,50.04
2022-09-06T14:31:26.274Z,50.24
2022-09-06T14:33:53.426Z,50.03
2022-09-06T14:36:20.516Z,50.13
2022-09-06T14:38:47.598Z,50.37
2022-09-06T14:41:14.715Z,50.10
2022-09-06T14:43:41.768Z,49.94
2022-09-06T14:46:08.871Z,50.08
2022-09-06T14:48:39.194Z,50.03
2022-09-06T14:51:09.355Z,50.30
2022-09-06T14:53:40.604Z,50.34
2022-09-06T14:56:08.054Z,50.23
2022-09-06T14:58:35.142Z,49.87
2022-09-06T15:01:02.232Z,49.93
2022-09-06T15:03:29.563Z,50.15
2022-09-06T15:05:56.914Z,49.84
2022-09-06T15:08:23.959Z,49.72
2022-09-06T15:10:50.999Z,50.01
2022-09-06T15:13:18.049Z,50.00
2022-09-06T15:15:45.300Z,49.79
2022-09-06T15:18:12.683Z,49.61
2022-09-06T15:20:40.214Z,50.00
2022-09-06T15:23:25.247Z,50.01
2022-09-06T15:25:56.303Z,49.78
2022-09-06T15:28:23.382Z,49.56
2022-09-06T15:30:50.617Z,49.70
2022-09-06T15:33:19.384Z,49.90
2022-09-06T15:35:46.436Z,49.47
2022-09-06T15:38:13.558Z,49.88
2022-09-06T15:40:40.597Z,49.33
2022-09-06T15:43:07.827Z,49.37
2022-09-06T15:45:34.904Z,49.70
2022-09-06T15:48:01.954Z,49.32
2022-09-06T15:50:49.765Z,49.38
2022-09-06T15:53:16.046Z,49.68
2022-09-06T15:55:58.530Z,49.35
2022-09-06T15:58:26.674Z,49.46
2022-09-06T16:00:54.202Z,49.73
2022-09-06T16:03:21.331Z,49.44
2022-09-06T16:08:35.458Z,49.88
2022-09-06T16:11:03.587Z,49.66
2022-09-06T16:13:30.653Z,49.34
2022-09-06T16:15:57.732Z,49.21
2022-09-06T16:18:25.021Z,49.49
2022-09-06T16:20:52.184Z,49.26
2022-09-06T16:23:19.924Z,49.29
2022-09-06T16:25:46.981Z,49.40
2022-09-06T16:28:14.112Z,49.52
2022-09-06T16:30:41.208Z,49.42
2022-09-06T16:33:08.350Z,49.32
2022-09-06T16:35:35.403Z,49.20
2022-09-06T16:38:02.481Z,49.42
2022-09-06T16:40:30.246Z,49.41
2022-09-06T16:42:57.356Z,49.03
2022-09-06T16:45:24.405Z,49.28
2022-09-06T16:47:51.475Z,48.82
2022-09-06T16:50:18.588Z,49.17
2022-09-06T16:52:45.685Z,49.14
2022-09-06T16:55:12.779Z,48.71
2022-09-06T16:57:39.824Z,49.04
2022-09-06T17:00:06.943Z,49.18
2022-09-06T17:02:34.113Z,48.86
2022-09-06T17:05:01.225Z,48.79
2022-09-06T17:07:28.371Z,49.11
2022-09-06T17:09:55.461Z,48.80
2022-09-06T17:12:22.636Z,48.74
2022-09-06T17:14:49.684Z,48.81
2022-09-06T17:17:17.897Z,48.51
2022-09-06T17:19:44.959Z,48.95
2022-09-06T17:22:12.697Z,48.64
2022-09-06T17:24:40.673Z,48.69
2022-09-06T17:27:07.795Z,48.45
2022-09-06T17:29:34.952Z,48.78
2022-09-06T17:32:03.969Z,48.62
2022-09-06T17:34:31.034Z,48.27
2022-09-06T17:36:58.113Z,48.36
2022-09-06T17:39:25.193Z,48.32
2022-09-06T17:41:53.633Z,48.28
2022-09-06T17:44:20.707Z,48.03
2022-09-06T17:47:09.059Z,47.91
2022-09-06T17:49:34.817Z,48.18
2022-09-06T17:52:01.919Z,47.93
2022-09-06T17:54:29.803Z,47.80
2022-09-06T17:56:57.098Z,47.60
2022-09-06T17:59:24.178Z,47.75
2022-09-06T18:01:51.283Z,47.96
2022-09-06T18:04:19.478Z,48.18
2022-09-06T18:06:47.552Z,48.00
2022-09-06T18:09:15.886Z,47.97
2022-09-06T18:11:45.610Z,47.79
2022-09-06T18:14:12.690Z,48.24
2022-09-06T18:16:40.130Z,48.07
2022-09-06T18:19:07.301Z,47.94
2022-09-06T18:21:34.406Z,48.33
2022-09-06T18:24:01.545Z,48.08
2022-09-06T18:26:28.659Z,48.27
2022-09-06T18:28:55.792Z,48.34
2022-09-06T18:31:22.956Z,48.15
2022-09-06T18:33:50.095Z,48.51
2022-09-06T18:36:17.208Z,48.61
2022-09-06T18:38:44.341Z,48.52
2022-09-06T18:41:31.352Z,48.32
2022-09-06T18:44:02.574Z,48.67
2022-09-06T18:46:29.649Z,49.19
2022-09-06T18:48:56.775Z,49.18
2022-09-06T18:51:23.890Z,49.56
2022-09-06T18:53:52.854Z,48.93
2022-09-06T18:56:19.933Z,49.32
2022-09-06T18:58:47.012Z,49.48
2022-09-06T19:01:14.136Z,49.35
2022-09-06T19:03:41.397Z,49.41
2022-09-06T19:06:08.470Z,49.38
2022-09-06T19:08:35.527Z,49.57
2022-09-06T19:11:03.443Z,49.60
2022-09-06T19:13:30.515Z,49.74
2022-09-06T19:15:57.689Z,49.31
2022-09-06T19:18:24.814Z,49.68
2022-09-06T19:20:52.558Z,50.24
2022-09-06T19:23:19.874Z,49.81
2022-09-06T19:25:46.920Z,49.80
2022-09-06T19:28:14.165Z,49.94
2022-09-06T19:30:41.221Z,50.22
2022-09-06T19:33:08.772Z,49.73
2022-09-06T19:35:38.818Z,49.53
2022-09-06T19:38:10.750Z,49.83
2022-09-06T19:40:37.814Z,50.07
2022-09-06T19:43:04.854Z,49.76
2022-09-06T19:45:32.022Z,50.01
2022-09-06T19:47:59.103Z,49.96
2022-09-06T19:50:26.185Z,50.21
2022-09-06T19:52:53.444Z,49.59
2022-09-06T19:55:20.509Z,49.97
2022-09-06T19:57:47.559Z,49.61
2022-09-06T20:00:14.844Z,50.23
2022-09-06T20:02:42.171Z,49.87
2022-09-06T20:05:09.325Z,49.94
2022-09-06T20:07:36.411Z,49.40
2022-09-06T20:10:03.475Z,49.45
2022-09-06T20:12:32.365Z,49.84
2022-09-06T20:14:59.500Z,49.56
2022-09-06T20:17:33.787Z,49.56
2022-09-06T20:20:01.264Z,49.87
2022-09-06T20:22:28.620Z,49.92
2022-09-06T20:24:55.689Z,49.91
2022-09-06T20:27:22.766Z,49.79
2022-09-06T20:29:49.830Z,50.06
2022-09-06T20:32:16.922Z,49.85
2022-09-06T20:34:44.054Z,50.47
2022-09-06T20:37:11.122Z,50.05
2022-09-06T20:39:38.462Z,49.85
2022-09-06T20:42:05.603Z,49.77
2022-09-06T20:44:32.708Z,49.93
2022-09-06T20:47:01.010Z,49.70
2022-09-06T20:49:28.116Z,49.56
2022-09-06T20:51:55.258Z,50.09
2022-09-06T20:54:22.303Z,49.88
2022-09-06T20:56:50.167Z,49.82
2022-09-06T20:59:17.227Z,50.03
2022-09-06T21:01:44.380Z,50.04
2022-09-06T21:04:11.578Z,49.69
2022-09-06T21:06:38.675Z,49.92
2022-09-06T21:09:05.754Z,49.91
2022-09-06T21:11:33.253Z,49.96
2022-09-06T21:14:00.393Z,49.69
2022-09-06T21:16:28.250Z,50.12
2022-09-06T21:18:55.379Z,50.08
2022-09-06T21:21:22.459Z,49.85
2022-09-06T21:23:49.545Z,50.05
2022-09-06T21:26:17.207Z,50.29
2022-09-06T21:28:44.772Z,50.37
2022-09-06T21:31:12.105Z,49.91
2022-09-06T21:33:40.612Z,50.35
2022-09-06T21:36:07.744Z,50.33
2022-09-06T21:38:34.839Z,50.47
2022-09-06T21:41:02.015Z,50.49
2022-09-06T21:43:29.335Z,50.38
2022-09-06T21:45:58.145Z,50.65
2022-09-06T21:48:25.311Z,50.67
2022-09-06T21:50:52.353Z,50.72
2022-09-06T21:53:19.503Z,50.76
2022-09-06T21:55:46.601Z,50.73
2022-09-06T21:58:13.692Z,50.57
2022-09-06T22:00:40.824Z,50.60
2022-09-06T22:03:08.332Z,50.38
2022-09-06T22:05:35.401Z,50.81
2022-09-06T22:08:02.470Z,50.69
2022-09-06T22:10:29.522Z,50.67
2022-09-06T22:12:56.601Z,50.60
2022-09-06T22:15:23.855Z,50.48
2022-09-06T22:17:50.918Z,50.80
2022-09-06T22:20:17.986Z,50.90
2022-09-06T22:22:46.271Z,50.93
2022-09-06T22:25:13.744Z,50.76
2022-09-06T22:27:40.875Z,50.78
2022-09-06T22:30:07.926Z,50.95
2022-09-06T22:32:34.998Z,50.95
2022-09-06T22:35:03.116Z,50.65
2022-09-06T22:37:30.210Z,50.57
2022-09-06T22:39:57.396Z,50.96
2022-09-06T22:42:24.515Z,50.61
2022-09-06T22:44:51.603Z,50.55
2022-09-06T22:47:18.663Z,50.63
2022-09-06T22:49:45.734Z,50.58
2022-09-06T22:52:12.929Z,50.83
2022-09-06T22:54:39.967Z,50.79
2022-09-06T22:57:07.005Z,50.79
2022-09-06T22:59:34.051Z,50.98
2022-09-06T23:02:01.104Z,50.93
2022-09-06T23:04:28.199Z,50.65
2022-09-06T23:06:55.266Z,50.86
2022-09-06T23:09:22.332Z,50.80
2022-09-06T23:11:49.428Z,51.07
2022-09-06T23:14:16.518Z,51.05
2022-09-06T23:16:43.595Z,51.05
2022-09-06T23:19:10.975Z,50.75
2022-09-06T23:21:38.043Z,51.05
2022-09-06T23:24:05.591Z,50.73
2022-09-06T23:26:32.674Z,50.84
2022-09-06T23:29:00.146Z,50.86
2022-09-06T23:31:27.355Z,51.00
2022-09-06T23:33:54.485Z,51.14
2022-09-06T23:36:21.539Z,51.04
2022-09-06T23:38:48.735Z,50.80
2022-09-06T23:41:15.827Z,51.01
2022-09-06T23:43:42.941Z,50.84
2022-09-06T23:46:10.089Z,50.90
2022-09-06T23:48:37.476Z,51.22
2022-09-06T23:51:04.514Z,51.02
2022-09-06T23:53:31.563Z,51.36
2022-09-06T23:55:58.606Z,50.86
2022-09-06T23:58:25.659Z,51.05
